Applegate, CA

8:52 PM PDT on September 15, 2014 (GMT -0700)
A Hill in Applegate | Change Station
CLOSE
Current Station
Personal Weather Station
Location: Applegate, CA
Elevation: 2260 ft
Nearby Weather Stations

Elev 2260 ft 39.01 °N, 120.98 °W | Updated 24 seconds ago

Clear
Clear
73.6 °F
Feels Like 77 °F
N
0.0
Wind Variable Wind from WSW
Gusts 0.0 mph

Today
High -- | Low -- °F
--% Chance of Precip.
Yesterday
High -- | Low -- °F
Precip. -- in
6:45 AM 7:12 PM
Waning Gibbous, 49% visible
Pressure 29.91 in
Visibility 10.0 miles
Clouds Clear
Heat Index 77 °F
Dew Point 40 °F
Humidity 30%
Rainfall 0.00 in
Snow Depth 0 in , 0 in , 0 in
UV 0 out of 12
Pollen 6.70 out of 12
Air Quality Not available.
Flu Activity Not available.
METAR KAUN 160335Z AUTO 00000KT 10SM CLR 25/06 A2991 RMK AO1

More Conditions Fewer Conditions

Pressure 29.91 in
Visibility 10.0 miles
Clouds Clear
Heat Index 77 °F
Dew Point 40 °F
Humidity 30%
Rainfall 0.00 in
Snow Depth 0 in , 0 in , 0 in
UV 0 out of 12
Pollen 6.70 out of 12
Air Quality Not available.
Flu Activity Not available.
METAR KAUN 160335Z AUTO 00000KT 10SM CLR 25/06 A2991 RMK AO1

More Conditions Fewer Conditions

10-Day Weather Forecast

Almanac

Astronomy

Sep. 15, 2014 Rise Set
Actual Time 6:45 AM PDT 7:12 PM PDT
Civil Twilight 6:18 AM PDT 7:38 PM PDT
Nautical Twilight 5:47 AM PDT 8:10 PM PDT
Astronomical Twilight 5:14 AM PDT 8:42 PM PDT
Moon No Moon Rise 1:47 PM PDT (9/15)
Length of Visible Light 13h 20m
Length of Day
12h 26m
Tomorrow will be 2m 30s shorter.
Waning Gibbous, 49% of the Moon is Illuminated
Today
Waning Gibbous
Sep 24
New
Oct 1
First Quarter
Oct 8
Full
Oct 15
Last Quarter

Today's Extremes

State Highs State Lows

Community

WunderPhotos

Upload Photos

1,753,693 photos uploaded!

Nearby

Air Quality

  Air Quality AQ Index Pollutant
Yesterday Moderate
OZONE

Snow Depth

Station Depth Elevation
Cedar Pass 0 in 7100 ft
Monitor Pass 0 in 8350 ft
Spratt Creek 0 in 6200 ft
Leavitt Meadows 1 in 7200 ft
Adin Mountain 0 in 6200 ft

Earthquake Activity

City Distance Mag. Time & Date
Cobb, California 98 miles 2.7 11:07 AM PDT
2014-09-14
Minimum magnitude displayed is 2.5.

Coastal Water Temperatures

Place Temperature
No Stations Reporting

Nearby Weather Stations